createdAt,value
2018-10-11T00:03:05.393Z,87.60
2018-10-11T00:08:08.796Z,87.40
2018-10-11T00:13:11.791Z,88.30
2018-10-11T00:18:14.768Z,87.90
2018-10-11T00:23:17.777Z,87.10
2018-10-11T00:28:20.753Z,87.80
2018-10-11T00:33:23.695Z,89.30
2018-10-11T00:38:26.772Z,88.80
2018-10-11T00:43:29.896Z,89.90
2018-10-11T00:48:32.950Z,89.80
2018-10-11T00:53:35.915Z,90.20
2018-10-11T00:58:38.924Z,91.70
2018-10-11T01:03:41.876Z,91.20
2018-10-11T01:08:44.840Z,91.20
2018-10-11T01:13:47.924Z,90.90
2018-10-11T01:18:50.892Z,90.20
2018-10-11T01:23:53.977Z,90.60
2018-10-11T01:28:56.867Z,89.50
2018-10-11T01:33:59.820Z,90.20
2018-10-11T01:39:05.702Z,89.10
2018-10-11T01:44:09.362Z,91.10
2018-10-11T01:49:12.493Z,92.60
2018-10-11T01:54:15.497Z,93.40
2018-10-11T01:59:18.532Z,96.00
2018-10-11T02:04:21.520Z,95.50
2018-10-11T02:09:24.562Z,93.70
2018-10-11T02:14:27.500Z,92.30
2018-10-11T02:19:30.487Z,93.10
2018-10-11T02:24:33.977Z,93.30
2018-10-11T02:29:36.976Z,94.30
2018-10-11T02:34:40.542Z,94.90
2018-10-11T02:39:43.583Z,95.30
2018-10-11T02:44:46.578Z,97.00
2018-10-11T02:49:49.563Z,97.70
2018-10-11T02:54:52.644Z,96.80
2018-10-11T02:59:55.691Z,97.60
2018-10-11T03:04:58.747Z,98.70
2018-10-11T03:10:02.260Z,98.30
2018-10-11T03:15:05.495Z,98.00
2018-10-11T03:20:08.523Z,98.80
2018-10-11T03:25:11.523Z,98.90
2018-10-11T03:30:14.531Z,98.80
2018-10-11T03:35:17.509Z,99.80
2018-10-11T03:40:20.480Z,99.10
2018-10-11T03:45:23.491Z,97.90
2018-10-11T03:50:26.939Z,97.00
2018-10-11T03:55:29.907Z,96.80
2018-10-11T04:00:33.023Z,96.10
2018-10-11T04:05:36.023Z,95.40
2018-10-11T04:10:39.015Z,97.10
2018-10-11T04:15:42.235Z,97.30
2018-10-11T04:20:45.164Z,96.70
2018-10-11T04:25:48.346Z,96.20
2018-10-11T04:30:51.313Z,97.60
2018-10-11T04:35:54.703Z,97.40
2018-10-11T04:40:57.665Z,97.50
2018-10-11T04:46:01.660Z,96.90
2018-10-11T04:51:04.643Z,97.50
2018-10-11T04:56:07.863Z,98.00
2018-10-11T05:01:10.819Z,99.20
2018-10-11T05:06:13.798Z,99.90
2018-10-11T05:11:17.144Z,99.10
2018-10-11T05:16:20.208Z,99.10
2018-10-11T05:21:23.192Z,99.90
2018-10-11T05:26:26.217Z,98.80
2018-10-11T05:31:29.851Z,97.20
2018-10-11T05:36:32.867Z,96.30
2018-10-11T05:41:36.680Z,96.10
2018-10-11T05:46:39.797Z,98.20
2018-10-11T05:51:42.875Z,98.20
2018-10-11T05:56:46.496Z,95.70
2018-10-11T06:01:49.472Z,94.60
2018-10-11T06:06:52.564Z,96.80
2018-10-11T06:11:56.619Z,94.50
2018-10-11T06:16:59.623Z,94.50
2018-10-11T06:22:03.252Z,94.30
2018-10-11T06:27:06.589Z,94.40
2018-10-11T06:32:09.631Z,94.20
2018-10-11T06:37:12.639Z,93.10
2018-10-11T06:42:15.871Z,87.10
2018-10-11T06:47:19.707Z,82.30
2018-10-11T06:52:22.824Z,79.10
2018-10-11T06:57:25.796Z,78.30
2018-10-11T07:02:28.819Z,78.40
2018-10-11T07:07:31.796Z,75.70
2018-10-11T07:12:34.968Z,70.00
2018-10-11T07:17:37.964Z,71.80
2018-10-11T07:22:41.070Z,73.40
2018-10-11T07:27:44.247Z,72.50
2018-10-11T07:32:47.215Z,70.50
2018-10-11T07:37:50.200Z,70.60
2018-10-11T07:42:53.159Z,69.80
2018-10-11T07:47:56.440Z,67.80
2018-10-11T07:52:59.473Z,67.20
2018-10-11T07:58:04.260Z,67.20
2018-10-11T08:03:07.291Z,66.30
2018-10-11T08:08:10.308Z,65.70
2018-10-11T08:13:13.370Z,65.70
2018-10-11T08:18:16.392Z,66.90
2018-10-11T08:23:19.446Z,65.50
2018-10-11T08:28:22.435Z,63.40
2018-10-11T08:33:25.426Z,61.90
2018-10-11T08:38:28.477Z,62.00
2018-10-11T08:43:31.477Z,62.10
2018-10-11T08:48:34.397Z,61.90
2018-10-11T08:53:37.471Z,62.70
2018-10-11T08:58:40.405Z,61.50
2018-10-11T09:03:43.579Z,61.60
2018-10-11T09:08:46.425Z,61.80
2018-10-11T09:13:49.403Z,62.40
2018-10-11T09:18:52.408Z,63.00
2018-10-11T09:23:55.440Z,63.80
2018-10-11T09:28:58.418Z,62.50
2018-10-11T09:34:02.178Z,62.90
2018-10-11T09:39:07.637Z,64.30
2018-10-11T09:44:10.578Z,64.40
2018-10-11T09:49:13.505Z,64.30
2018-10-11T09:54:16.414Z,63.30
2018-10-11T09:59:19.280Z,63.20
2018-10-11T10:04:22.164Z,63.40
2018-10-11T10:09:25.599Z,63.70
2018-10-11T10:14:28.698Z,62.70
2018-10-11T10:19:31.630Z,62.80
2018-10-11T10:24:35.532Z,63.10
2018-10-11T10:29:38.449Z,62.60
2018-10-11T10:34:41.377Z,62.80
2018-10-11T10:39:44.367Z,62.10
2018-10-11T10:44:47.301Z,61.50
2018-10-11T10:49:50.193Z,61.60
2018-10-11T10:54:53.159Z,61.60
2018-10-11T10:59:56.084Z,62.30
2018-10-11T11:04:59.120Z,60.50
2018-10-11T11:10:05.047Z,60.90
2018-10-11T11:15:08.043Z,60.50
2018-10-11T11:20:11.011Z,60.70
2018-10-11T11:25:14.104Z,60.60
2018-10-11T11:30:17.008Z,60.00
2018-10-11T11:35:20.062Z,59.20
2018-10-11T11:40:23.059Z,60.00
2018-10-11T11:45:26.104Z,59.50
2018-10-11T11:50:29.065Z,58.40
2018-10-11T11:55:31.973Z,58.20
2018-10-11T12:00:35.058Z,58.60
2018-10-11T12:05:37.986Z,57.10
2018-10-11T12:10:40.915Z,58.30
2018-10-11T12:15:44.345Z,57.60
2018-10-11T12:20:47.393Z,57.10
2018-10-11T12:25:50.414Z,56.80
2018-10-11T12:30:53.338Z,56.10
2018-10-11T12:35:56.334Z,55.70
2018-10-11T12:41:00.046Z,55.90
2018-10-11T12:46:04.307Z,56.60
2018-10-11T12:51:07.344Z,57.00
2018-10-11T12:56:10.280Z,56.90
2018-10-11T13:01:16.353Z,55.90
2018-10-11T13:06:16.187Z,54.80
2018-10-11T13:11:19.103Z,54.20
2018-10-11T13:16:22.037Z,53.90
2018-10-11T13:21:24.992Z,54.00
2018-10-11T13:26:28.005Z,54.10
2018-10-11T13:31:31.028Z,53.70
2018-10-11T13:36:34.022Z,53.90
2018-10-11T13:41:37.227Z,54.60
2018-10-11T13:46:40.144Z,54.50
2018-10-11T13:51:43.196Z,54.70
2018-10-11T13:56:52.268Z,55.90
2018-10-11T14:01:49.324Z,56.40
2018-10-11T14:06:52.385Z,56.90
2018-10-11T14:11:55.404Z,56.90
2018-10-11T14:16:58.422Z,56.90
2018-10-11T14:22:02.117Z,56.70
2018-10-11T14:27:05.235Z,56.10
2018-10-11T14:32:08.255Z,55.50
2018-10-11T14:37:11.421Z,54.90
2018-10-11T14:42:14.284Z,55.60
2018-10-11T14:47:17.279Z,55.60
2018-10-11T14:52:20.279Z,55.80
2018-10-11T14:57:23.335Z,56.30
2018-10-11T15:02:26.467Z,57.10
2018-10-11T15:07:29.673Z,57.80
2018-10-11T15:12:32.998Z,58.80
2018-10-11T15:17:36.079Z,59.20
2018-10-11T15:22:39.026Z,59.30
2018-10-11T15:27:42.032Z,59.30
2018-10-11T15:32:45.122Z,59.70
2018-10-11T15:37:48.829Z,59.60
2018-10-11T15:42:51.980Z,60.40
2018-10-11T15:47:54.994Z,61.00
2018-10-11T15:52:58.025Z,61.70
2018-10-11T15:58:02.228Z,63.10
2018-10-11T16:03:05.380Z,63.20
2018-10-11T16:08:08.348Z,63.90
2018-10-11T16:13:11.551Z,64.10
2018-10-11T16:18:14.585Z,64.30
2018-10-11T16:23:17.747Z,64.70
2018-10-11T16:28:20.798Z,64.70
2018-10-11T16:33:23.988Z,64.90
2018-10-11T16:38:27.033Z,65.00
2018-10-11T16:43:30.081Z,65.10
2018-10-11T16:48:33.491Z,65.80
2018-10-11T16:53:36.513Z,65.80
2018-10-11T16:58:39.568Z,66.10
2018-10-11T17:03:42.649Z,67.00
2018-10-11T17:08:45.704Z,67.40
2018-10-11T17:13:48.832Z,68.40
2018-10-11T17:18:51.881Z,68.60
2018-10-11T17:23:54.828Z,69.80
2018-10-11T17:28:57.828Z,70.50
2018-10-11T17:34:02.617Z,70.50
2018-10-11T17:39:08.370Z,71.60
2018-10-11T17:44:11.370Z,71.20
2018-10-11T17:49:14.331Z,71.60
2018-10-11T17:54:17.250Z,71.60
2018-10-11T17:59:20.218Z,71.70
2018-10-11T18:04:23.215Z,72.20
2018-10-11T18:09:26.212Z,72.60
2018-10-11T18:14:29.250Z,72.00
2018-10-11T18:19:32.382Z,72.60
2018-10-11T18:24:35.308Z,73.00
2018-10-11T18:29:38.273Z,73.20
2018-10-11T18:34:41.525Z,73.90
2018-10-11T18:39:44.557Z,74.20
2018-10-11T18:44:47.557Z,73.80
2018-10-11T18:49:50.764Z,74.60
2018-10-11T18:54:53.752Z,74.90
2018-10-11T18:59:56.785Z,75.10
2018-10-11T19:04:59.826Z,76.20
2018-10-11T19:10:05.560Z,77.60
2018-10-11T19:15:08.788Z,77.60
2018-10-11T19:20:11.922Z,77.10
2018-10-11T19:25:15.014Z,77.30
2018-10-11T19:30:18.177Z,77.60
2018-10-11T19:35:21.289Z,78.10
2018-10-11T19:40:24.412Z,78.40
2018-10-11T19:45:27.792Z,78.30
2018-10-11T19:50:30.765Z,80.00
2018-10-11T19:55:33.903Z,80.40
2018-10-11T20:00:36.939Z,81.30
2018-10-11T20:05:39.932Z,81.30
2018-10-11T20:10:42.964Z,82.10
2018-10-11T20:15:45.907Z,81.40
2018-10-11T20:20:49.002Z,81.40
2018-10-11T20:25:52.264Z,82.00
2018-10-11T20:30:55.363Z,84.70
2018-10-11T20:35:58.445Z,87.20
2018-10-11T20:41:03.231Z,84.40
2018-10-11T20:46:06.887Z,83.70
2018-10-11T20:51:10.103Z,84.80
2018-10-11T20:56:13.268Z,84.60
2018-10-11T21:01:16.255Z,85.70
2018-10-11T21:06:19.256Z,86.30
2018-10-11T21:11:22.283Z,90.10
2018-10-11T21:16:25.245Z,90.60
2018-10-11T21:21:28.554Z,90.00
2018-10-11T21:26:31.625Z,89.90
2018-10-11T21:31:34.885Z,89.60
2018-10-11T21:36:37.868Z,90.00
2018-10-11T21:41:41.449Z,87.40
2018-10-11T21:46:44.442Z,90.50
2018-10-11T21:51:47.455Z,92.40
2018-10-11T21:56:50.410Z,92.10
2018-10-11T22:01:53.409Z,95.00
2018-10-11T22:06:56.370Z,95.60
2018-10-11T22:11:59.363Z,94.10
2018-10-11T22:17:03.749Z,89.90
2018-10-11T22:22:06.770Z,91.00
2018-10-11T22:27:09.889Z,91.50
2018-10-11T22:32:12.963Z,91.50
2018-10-11T22:37:16.000Z,95.60
2018-10-11T22:42:19.109Z,96.70
2018-10-11T22:47:22.347Z,91.40
2018-10-11T22:52:25.374Z,93.20
2018-10-11T22:57:28.400Z,94.00
2018-10-11T23:02:31.403Z,94.10
2018-10-11T23:07:34.569Z,96.30
2018-10-11T23:12:37.522Z,96.20
2018-10-11T23:17:40.849Z,95.00
2018-10-11T23:22:43.816Z,91.10
2018-10-11T23:27:46.777Z,95.70
2018-10-11T23:32:49.813Z,97.40
2018-10-11T23:37:52.798Z,97.60
2018-10-11T23:42:55.811Z,97.80
2018-10-11T23:47:58.845Z,98.90
2018-10-11T23:53:03.659Z,98.60
2018-10-11T23:58:06.598Z,98.40
